首页
METAR-TAF:

METAR-TAF

机场 :

Payam

卡拉季, 伊朗

纬度: 35-46-34N, 经度: 050-49-36E, 海拔: 1271米

当前天气观测

该预报发布于1小时和1分钟前的09:00 UTC
风速10节,风向东转东南
温度 2°C
湿度 80%
气压 1018 hPa
能見度: 3500
散云层高于3000英尺
阴天层高于8000英尺
轻雾

METAR: OIIP 180900Z 11010KT 3500 BR SCT030 OVC080 02/M01 Q1017 A3005 RESN

时间: 13:31 (10:01 UTC)


TAF: 丢失

超过4000个机场的气象观测和天气预报(METAR&TAF报告)。

可查询的气象台以黄色和红色小点在地图上表示。

将鼠标移到小点上方,可查看气象台名称。

然后点击查看天气观测和预报。

如需切换地图:点击带黑十字的绿色按钮放大地图;点击带横线的绿色按钮缩小地图;或者点击绿色箭头查看邻近地区的地图。


METAR-TAF: